Time;durP1;ratioP1;P1;durP2;ratioP2;P2;SDS_P1;SDS_P2;PMS_P1;PMS_P2;Temp;Humidity;BMP_temperature;BMP_pressure;BME280_temperature;BME280_humidity;BME280_pressure;Samples;Min_cycle;Max_cycle;Signal;HPM_P1;HPM_P2
2022/04/27 00:00:30;;;;;;;12.38;7.78;;;;;;;2.85;93.08;102283.56;1043849;28;20287;-77
2022/04/27 00:01:04;;;;;;;18.00;8.85;;;;;;;2.86;93.12;102279.13;1039724;28;20382;-76
2022/04/27 00:01:36;;;;;;;11.35;8.50;;;;;;;2.84;93.51;102283.69;1039508;28;20366;-77
2022/04/27 00:02:07;;;;;;;8.35;7.35;;;;;;;2.83;93.58;102271.50;1040629;28;20280;-76
2022/04/27 00:02:39;;;;;;;11.90;7.90;;;;;;;2.82;93.61;102286.44;1043799;28;20809;-77
2022/04/27 00:03:10;;;;;;;10.10;8.75;;;;;;;2.85;94.06;102282.72;1043997;28;20419;-76
2022/04/27 00:03:42;;;;;;;15.15;8.30;;;;;;;2.90;93.91;102275.25;1044173;28;20295;-76
2022/04/27 00:04:14;;;;;;;15.00;8.50;;;;;;;2.69;93.50;102283.16;1043748;28;20365;-76
2022/04/27 00:04:45;;;;;;;10.20;8.60;;;;;;;2.29;94.34;102278.63;1043592;28;20377;-76
2022/04/27 00:05:18;;;;;;;11.07;8.85;;;;;;;2.25;94.69;102281.63;1043826;28;20295;-77
2022/04/27 00:05:49;;;;;;;11.95;8.18;;;;;;;2.43;94.45;102280.94;1036418;28;20288;-77
2022/04/27 00:06:21;;;;;;;16.80;8.80;;;;;;;2.45;95.05;102278.16;1039680;28;20296;-77
2022/04/27 00:06:52;;;;;;;13.60;8.02;;;;;;;2.40;95.08;102283.81;1031607;28;20313;-76
2022/04/27 00:07:24;;;;;;;10.00;7.60;;;;;;;2.28;95.11;102286.63;1032530;28;20683;-77
2022/04/27 00:07:55;;;;;;;13.90;8.90;;;;;;;2.21;95.49;102274.97;1039541;28;20784;-77
2022/04/27 00:08:27;;;;;;;8.90;8.10;;;;;;;2.06;95.50;102283.13;1036408;28;20301;-76
2022/04/27 00:08:58;;;;;;;13.48;8.50;;;;;;;2.30;96.14;102279.47;1043628;28;20393;-77
2022/04/27 00:09:31;;;;;;;8.30;7.22;;;;;;;2.41;95.75;102282.03;1043637;28;20314;-77
2022/04/27 00:10:04;;;;;;;8.27;7.50;;;;;;;2.31;95.89;102286.38;1040218;28;20311;-77
2022/04/27 00:10:36;;;;;;;13.32;8.32;;;;;;;2.08;96.13;102275.97;1039683;28;20311;-77
2022/04/27 00:11:07;;;;;;;10.90;8.55;;;;;;;2.12;96.10;102282.63;1039789;28;20288;-76
2022/04/27 00:11:39;;;;;;;11.55;8.77;;;;;;;2.13;96.07;102279.03;1039536;28;20303;-77
2022/04/27 00:12:10;;;;;;;11.10;8.73;;;;;;;2.24;96.39;102277.34;1040218;28;20292;-76
2022/04/27 00:12:47;;;;;;;15.73;8.45;;;;;;;2.30;96.38;102275.03;1041559;28;20288;-78
2022/04/27 00:13:19;;;;;;;9.95;8.07;;;;;;;1.96;96.14;102273.50;1043386;28;20303;-77
2022/04/27 00:13:51;;;;;;;12.57;8.25;;;;;;;1.84;96.73;102276.16;1039619;28;20335;-77
2022/04/27 00:14:23;;;;;;;10.77;8.05;;;;;;;1.78;96.25;102270.56;1037439;28;20388;-76
2022/04/27 00:14:55;;;;;;;10.32;8.68;;;;;;;1.56;96.83;102271.44;1040187;28;20300;-76
2022/04/27 00:15:28;;;;;;;10.85;8.07;;;;;;;1.48;97.33;102272.06;1043729;28;20306;-77
2022/04/27 00:15:59;;;;;;;11.50;8.38;;;;;;;1.69;97.14;102273.94;1044051;28;20307;-77
2022/04/27 00:16:31;;;;;;;9.35;8.45;;;;;;;1.98;97.78;102274.22;1043913;28;20299;-77
2022/04/27 00:17:03;;;;;;;13.50;8.60;;;;;;;2.05;97.53;102273.59;1044021;28;20668;-77
2022/04/27 00:17:34;;;;;;;13.10;8.57;;;;;;;1.83;97.61;102277.13;1043842;28;20291;-76
2022/04/27 00:18:06;;;;;;;10.35;9.35;;;;;;;1.85;97.54;102274.34;1043597;28;20299;-76
2022/04/27 00:18:38;;;;;;;13.23;8.30;;;;;;;1.96;97.57;102266.47;1043782;28;20303;-76
2022/04/27 00:19:09;;;;;;;21.55;9.30;;;;;;;2.05;97.53;102268.31;1043973;28;20622;-76
2022/04/27 00:19:41;;;;;;;14.18;8.13;;;;;;;2.16;97.63;102265.63;1043867;28;20307;-76
2022/04/27 00:20:12;;;;;;;13.25;8.75;;;;;;;2.16;97.78;102268.28;1043865;28;20782;-76
2022/04/27 00:20:44;;;;;;;9.25;8.15;;;;;;;2.08;97.38;102275.97;1044115;28;20302;-76
2022/04/27 00:21:15;;;;;;;10.02;9.00;;;;;;;2.06;96.96;102271.78;1043868;28;20311;-77
2022/04/27 00:21:47;;;;;;;11.90;9.43;;;;;;;2.01;97.02;102269.53;1043454;28;20318;-78
2022/04/27 00:22:19;;;;;;;8.80;7.97;;;;;;;1.98;97.07;102275.06;1039752;28;20300;-77
2022/04/27 00:22:51;;;;;;;13.18;8.65;;;;;;;1.97;96.70;102267.28;1039776;28;20304;-77
2022/04/27 00:23:25;;;;;;;9.10;7.68;;;;;;;1.88;96.27;102268.84;1037209;28;20297;-80
2022/04/27 00:23:56;;;;;;;9.50;8.43;;;;;;;1.75;96.36;102268.19;1036771;28;20386;-81
2022/04/27 00:24:28;;;;;;;12.25;9.40;;;;;;;1.72;96.95;102269.28;1041345;28;20355;-80
2022/04/27 00:25:00;;;;;;;17.30;8.55;;;;;;;1.62;96.95;102270.13;1033201;28;20304;-79
2022/04/27 00:25:32;;;;;;;10.73;8.82;;;;;;;1.55;97.21;102267.16;1036849;28;20312;-80
2022/04/27 00:26:04;;;;;;;14.60;8.52;;;;;;;1.53;97.28;102269.91;1035033;28;20301;-80
2022/04/27 00:26:36;;;;;;;10.10;8.18;;;;;;;1.48;97.22;102261.56;1036891;28;20308;-80
2022/04/27 00:27:07;;;;;;;13.48;8.93;;;;;;;1.58;97.97;102256.41;1044272;28;20302;-80
2022/04/27 00:27:39;;;;;;;15.10;9.55;;;;;;;1.65;98.19;102267.28;1044165;28;20350;-80
2022/04/27 00:28:10;;;;;;;16.02;9.02;;;;;;;1.63;97.47;102267.38;1043915;28;20702;-79
2022/04/27 00:28:42;;;;;;;11.15;8.65;;;;;;;1.65;98.20;102267.28;1039988;28;20319;-80
2022/04/27 00:29:14;;;;;;;11.35;8.18;;;;;;;1.65;97.74;102267.28;1039617;28;20308;-80
2022/04/27 00:29:46;;;;;;;11.80;8.82;;;;;;;1.65;98.07;102267.28;1040311;28;20318;-80
2022/04/27 00:30:18;;;;;;;10.45;8.13;;;;;;;1.69;97.85;102268.69;1044376;28;20291;-80
2022/04/27 00:30:49;;;;;;;9.10;8.23;;;;;;;1.76;97.76;102264.59;1044085;28;20614;-80
2022/04/27 00:31:21;;;;;;;10.73;9.40;;;;;;;1.85;97.53;102264.69;1044265;28;20307;-80
2022/04/27 00:31:52;;;;;;;11.73;8.38;;;;;;;1.85;97.89;102266.47;1044262;28;20306;-79
2022/04/27 00:32:24;;;;;;;12.38;9.10;;;;;;;1.90;98.18;102268.72;1044247;28;20291;-80
2022/04/27 00:32:56;;;;;;;10.52;8.80;;;;;;;2.01;97.52;102264.28;1044335;28;20303;-79
2022/04/27 00:33:27;;;;;;;10.80;9.10;;;;;;;2.06;97.53;102262.09;1043955;28;20378;-80
2022/04/27 00:34:00;;;;;;;9.60;8.60;;;;;;;1.96;97.74;102271.72;1039861;28;20300;-80
2022/04/27 00:34:32;;;;;;;12.32;9.48;;;;;;;1.64;97.21;102268.19;1035539;28;20335;-80
2022/04/27 00:35:06;;;;;;;12.43;9.65;;;;;;;1.47;98.08;102269.56;1032569;28;20833;-80
2022/04/27 00:35:38;;;;;;;10.38;9.27;;;;;;;1.72;98.18;102269.28;1036727;28;20367;-80
2022/04/27 00:36:10;;;;;;;15.27;9.52;;;;;;;1.82;98.10;102266.72;1040460;28;20649;-80
2022/04/27 00:36:41;;;;;;;12.80;9.13;;;;;;;1.78;97.45;102267.94;1041048;28;20339;-79
2022/04/27 00:37:13;;;;;;;14.63;10.52;;;;;;;1.66;98.39;102268.94;1043433;28;20303;-79
2022/04/27 00:37:44;;;;;;;10.35;8.73;;;;;;;1.72;98.62;102263.19;1039816;28;20300;-80
2022/04/27 00:38:16;;;;;;;13.05;9.50;;;;;;;1.75;98.27;102273.44;1036303;28;20671;-78
2022/04/27 00:38:47;;;;;;;12.30;9.48;;;;;;;1.67;98.48;102260.09;1040219;28;20303;-78
2022/04/27 00:39:19;;;;;;;10.88;9.77;;;;;;;1.67;98.59;102260.09;1040651;28;20624;-77
2022/04/27 00:39:51;;;;;;;11.95;9.38;;;;;;;1.83;98.51;102268.41;1044547;28;20299;-78
2022/04/27 00:40:22;;;;;;;12.27;9.77;;;;;;;1.92;98.37;102267.69;1040083;28;20424;-77
2022/04/27 00:40:54;;;;;;;14.88;9.70;;;;;;;1.96;98.73;102269.09;1040850;28;20312;-78
2022/04/27 00:41:25;;;;;;;13.70;10.13;;;;;;;1.96;98.44;102266.47;1040367;28;20288;-76
2022/04/27 00:42:00;;;;;;;14.60;10.70;;;;;;;1.92;98.40;102267.69;1036965;28;20288;-75
2022/04/27 00:42:31;;;;;;;12.75;11.27;;;;;;;1.82;98.60;102266.72;1044363;28;20303;-77
2022/04/27 00:43:03;;;;;;;10.98;9.98;;;;;;;1.86;98.19;102271.59;1044624;28;20284;-78
2022/04/27 00:43:41;;;;;;;10.73;9.73;;;;;;;1.74;98.47;102272.59;1040833;28;20307;-78
2022/04/27 00:44:12;;;;;;;10.13;9.23;;;;;;;1.42;98.46;102267.31;1040187;28;20789;-78
2022/04/27 00:44:45;;;;;;;10.40;9.40;;;;;;;1.45;99.10;102256.56;1036041;28;20300;-77
2022/04/27 00:45:17;;;;;;;15.60;9.25;;;;;;;1.32;98.74;102273.38;1032114;28;20456;-78
2022/04/27 00:45:50;;;;;;;10.52;8.70;;;;;;;1.42;99.25;102263.84;1030231;28;20371;-77
2022/04/27 00:46:22;;;;;;;10.52;9.45;;;;;;;1.41;99.01;102272.69;1032122;28;20743;-76
2022/04/27 00:46:54;;;;;;;11.40;9.15;;;;;;;1.34;98.77;102269.69;1029622;28;20321;-77
2022/04/27 00:47:28;;;;;;;11.63;10.50;;;;;;;1.42;99.54;102269.94;1028663;28;20310;-76
2022/04/27 00:47:59;;;;;;;11.88;8.85;;;;;;;1.48;99.15;102269.44;1032575;28;20305;-77
2022/04/27 00:48:31;;;;;;;9.93;8.32;;;;;;;1.42;99.18;102267.31;1036942;28;20293;-77
2022/04/27 00:49:02;;;;;;;11.48;10.15;;;;;;;1.45;99.34;102277.56;1037785;28;20635;-76
2022/04/27 00:49:34;;;;;;;11.57;10.23;;;;;;;1.53;99.60;102267.28;1044252;28;20306;-76
2022/04/27 00:50:06;;;;;;;10.57;9.48;;;;;;;1.54;99.01;102271.56;1040160;28;20304;-77
2022/04/27 00:50:38;;;;;;;10.18;9.18;;;;;;;1.47;99.27;102275.66;1036693;28;20308;-77
2022/04/27 00:51:17;;;;;;;10.63;9.35;;;;;;;1.41;98.98;102275.31;1040205;28;20288;-76
2022/04/27 00:51:49;;;;;;;11.00;8.65;;;;;;;1.35;99.38;102276.59;1035489;28;20293;-78
2022/04/27 00:52:22;;;;;;;12.88;11.05;;;;;;;1.32;99.57;102271.59;1040614;28;20315;-77
2022/04/27 00:52:54;;;;;;;13.65;10.00;;;;;;;1.31;99.63;102275.19;1036124;28;20300;-77
2022/04/27 00:53:26;;;;;;;16.05;10.43;;;;;;;1.35;99.73;102273.97;1036718;28;20305;-77
2022/04/27 00:53:59;;;;;;;10.73;9.35;;;;;;;1.32;99.26;102276.00;1035921;28;20331;-77
2022/04/27 00:54:31;;;;;;;11.70;10.52;;;;;;;1.31;99.49;102269.94;1031967;28;20442;-76
2022/04/27 00:55:03;;;;;;;16.50;10.85;;;;;;;1.33;99.36;102269.81;1032047;28;20301;-76
2022/04/27 00:55:35;;;;;;;10.68;9.63;;;;;;;1.27;99.29;102263.25;1031899;28;20301;-77
2022/04/27 00:56:07;;;;;;;11.50;9.00;;;;;;;1.26;99.53;102272.09;1033356;28;20313;-77
2022/04/27 00:56:39;;;;;;;12.70;10.48;;;;;;;1.21;99.45;102269.81;1036560;28;20304;-81
2022/04/27 00:57:11;;;;;;;14.57;10.35;;;;;;;1.06;99.49;102267.53;1036850;28;20317;-80
2022/04/27 00:57:46;;;;;;;11.55;10.40;;;;;;;0.98;100.00;102277.81;1039620;28;20658;-80
2022/04/27 00:58:19;;;;;;;11.00;9.88;;;;;;;0.97;99.94;102269.09;1032915;28;20298;-80
2022/04/27 00:59:10;;;;;;;10.10;8.70;;;;;;;0.93;100.00;102271.13;1035820;28;20304;-79
2022/04/27 00:59:42;;;;;;;13.00;10.30;;;;;;;0.91;100.00;102272.22;1039393;28;20298;-80
2022/04/27 01:00:15;;;;;;;14.82;10.55;;;;;;;0.89;100.00;102274.13;1039278;28;20292;-80
2022/04/27 01:00:46;;;;;;;11.02;9.93;;;;;;;0.90;100.00;102274.00;1039269;28;20391;-80
2022/04/27 01:01:18;;;;;;;13.18;9.20;;;;;;;0.87;100.00;102274.22;1035618;28;20818;-80
2022/04/27 01:01:50;;;;;;;13.85;10.43;;;;;;;0.82;100.00;102271.13;1027357;28;20807;-80
2022/04/27 01:02:22;;;;;;;12.40;10.75;;;;;;;0.84;100.00;102278.88;1027399;28;20298;-80
2022/04/27 01:02:54;;;;;;;12.85;10.35;;;;;;;0.86;100.00;102276.97;1028185;28;20305;-80
2022/04/27 01:03:26;;;;;;;10.45;9.45;;;;;;;0.85;100.00;102273.50;1033742;28;20313;-80
2022/04/27 01:03:57;;;;;;;10.57;9.48;;;;;;;0.78;100.00;102276.72;1032223;28;20400;-80
2022/04/27 01:04:31;;;;;;;12.30;10.57;;;;;;;0.69;100.00;102275.63;1031806;28;20348;-80
2022/04/27 01:05:07;;;;;;;11.52;10.48;;;;;;;0.86;100.00;102275.19;1035585;28;20304;-80
2022/04/27 01:05:40;;;;;;;10.57;9.68;;;;;;;0.80;100.00;102280.03;1036885;28;20348;-80
2022/04/27 01:06:13;;;;;;;12.25;10.18;;;;;;;0.79;100.00;102276.59;1037218;28;20303;-80
2022/04/27 01:06:44;;;;;;;13.82;10.15;;;;;;;0.85;100.00;102278.75;1031456;28;20388;-80
2022/04/27 01:07:17;;;;;;;17.13;10.85;;;;;;;0.84;100.00;102281.50;1027873;28;20675;-80
2022/04/27 01:07:49;;;;;;;11.40;10.30;;;;;;;0.80;100.00;102274.81;1032438;28;20328;-80
2022/04/27 01:08:22;;;;;;;13.02;11.23;;;;;;;0.85;100.00;102278.75;1037540;28;20297;-80
2022/04/27 01:08:54;;;;;;;15.32;10.98;;;;;;;0.83;100.00;102280.66;1036510;28;20300;-77
2022/04/27 01:09:26;;;;;;;14.63;10.85;;;;;;;0.81;100.00;102272.06;1036307;28;20289;-80
2022/04/27 01:09:57;;;;;;;12.32;10.77;;;;;;;0.84;100.00;102276.25;1027977;28;20305;-80
2022/04/27 01:10:29;;;;;;;12.40;11.23;;;;;;;0.89;100.00;102274.13;1032103;28;20297;-80
2022/04/27 01:11:02;;;;;;;11.88;10.48;;;;;;;0.85;100.00;102270.91;1035752;28;20435;-80
2022/04/27 01:11:38;;;;;;;12.35;10.35;;;;;;;0.80;100.00;102278.25;1029862;28;20688;-80
2022/04/27 01:12:10;;;;;;;14.23;10.93;;;;;;;0.87;100.00;102286.50;1031422;28;20359;-80
2022/04/27 01:12:49;;;;;;;13.45;9.73;;;;;;;1.15;100.00;102275.56;1031668;28;20302;-80
2022/04/27 01:13:20;;;;;;;14.32;10.00;;;;;;;1.18;100.00;102279.72;1031413;28;20667;-81
2022/04/27 01:14:00;;;;;;;11.07;10.05;;;;;;;1.31;100.00;102280.41;1029985;28;20412;-80
2022/04/27 01:14:45;;;;;;;11.75;10.50;;;;;;;1.38;100.00;102276.38;1032912;28;21178;-80
2022/04/27 01:15:33;;;;;;;11.20;10.00;;;;;;;1.47;100.00;102291.41;1039886;28;20307;-76
2022/04/27 01:16:05;;;;;;;12.90;10.27;;;;;;;1.47;100.00;102280.91;1040316;28;20741;-77
2022/04/27 01:16:37;;;;;;;13.05;10.25;;;;;;;1.43;100.00;102289.97;1034236;28;20305;-76
2022/04/27 01:17:09;;;;;;;10.85;9.27;;;;;;;1.39;100.00;102285.94;1037155;28;20378;-76
2022/04/27 01:17:40;;;;;;;10.93;9.82;;;;;;;1.33;100.00;102282.94;1035909;28;21561;-76
2022/04/27 01:18:12;;;;;;;10.27;9.27;;;;;;;1.17;100.00;102283.31;1036562;28;20322;-77
2022/04/27 01:18:48;;;;;;;10.95;9.13;;;;;;;1.06;99.84;102288.53;1036659;28;20411;-78
2022/04/27 01:19:23;;;;;;;13.75;9.98;;;;;;;0.98;99.53;102283.88;1036620;28;20321;-76
2022/04/27 01:19:55;;;;;;;13.60;10.20;;;;;;;1.06;99.87;102288.53;1031855;28;20545;-77
2022/04/27 01:20:35;;;;;;;13.10;9.45;;;;;;;0.90;99.89;102281.03;1033247;28;20286;-76
2022/04/27 01:21:07;;;;;;;12.15;9.48;;;;;;;0.86;99.96;102284.84;1030111;28;20306;-77
2022/04/27 01:21:48;;;;;;;;;;;;;;;0.89;99.92;102284.59;1033285;28;20320;-77
2022/04/27 01:22:20;;;;;;;12.75;9.35;;;;;;;1.16;99.99;102289.50;1032013;28;19922;-77
2022/04/27 01:22:52;;;;;;;17.80;9.50;;;;;;;1.12;99.55;102294.16;1033632;28;20320;-78
2022/04/27 01:23:31;;;;;;;12.35;9.38;;;;;;;0.98;99.84;102288.31;1031927;28;20301;-80
2022/04/27 01:24:04;;;;;;;12.57;9.75;;;;;;;1.09;100.00;102285.66;1032901;28;20312;-81
2022/04/27 01:24:36;;;;;;;12.05;8.70;;;;;;;1.14;99.80;102283.56;1027901;28;20389;-80
2022/04/27 01:25:09;;;;;;;15.13;9.57;;;;;;;1.16;99.92;102290.34;1032306;28;20660;-80
2022/04/27 01:25:46;;;;;;;14.52;10.52;;;;;;;1.11;99.64;102294.28;1032215;28;20316;-80
2022/04/27 01:26:17;;;;;;;13.30;10.27;;;;;;;1.14;99.63;102294.06;1032820;28;20305;-80
2022/04/27 01:26:49;;;;;;;13.60;9.70;;;;;;;1.30;99.44;102289.25;1032640;28;20807;-80
2022/04/27 01:27:21;;;;;;;11.30;9.55;;;;;;;1.26;99.29;102298.31;1036851;28;20304;-80
2022/04/27 01:27:53;;;;;;;11.68;9.77;;;;;;;1.13;99.36;102292.38;1040341;28;20658;-80
2022/04/27 01:28:29;;;;;;;10.20;9.27;;;;;;;0.84;99.09;102294.63;1037398;28;20667;-79
2022/04/27 01:29:01;;;;;;;11.45;8.88;;;;;;;0.95;99.53;102291.16;1029780;28;20392;-80
2022/04/27 01:29:34;;;;;;;11.88;9.50;;;;;;;0.99;99.51;102295.22;1031535;28;20304;-80
2022/04/27 01:30:06;;;;;;;10.52;9.00;;;;;;;0.87;99.47;102287.34;1031853;28;20767;-79
2022/04/27 01:30:38;;;;;;;11.27;9.65;;;;;;;0.87;98.99;102292.59;1032487;28;20311;-80
2022/04/27 01:31:10;;;;;;;13.55;9.85;;;;;;;1.05;99.28;102289.50;1032884;28;20305;-80
2022/04/27 01:31:42;;;;;;;14.82;9.35;;;;;;;1.07;99.38;102287.59;1036095;28;20418;-80
2022/04/27 01:32:15;;;;;;;20.42;9.63;;;;;;;0.99;99.13;102289.97;1039678;28;20345;-80
2022/04/27 01:32:47;;;;;;;11.32;10.18;;;;;;;1.05;98.93;102290.31;1036185;28;20387;-80
2022/04/27 01:33:18;;;;;;;13.02;8.85;;;;;;;1.07;99.15;102292.81;1040591;28;20651;-80
2022/04/27 01:33:50;;;;;;;14.70;8.85;;;;;;;1.11;99.07;102295.13;1039344;28;20304;-80
2022/04/27 01:34:21;;;;;;;10.80;9.65;;;;;;;0.97;99.31;102299.75;1039824;28;20759;-80
2022/04/27 01:34:53;;;;;;;11.40;8.68;;;;;;;1.02;99.45;102300.22;1038926;28;20302;-80
2022/04/27 01:35:24;;;;;;;11.70;9.25;;;;;;;1.05;99.22;102292.94;1039867;28;20316;-80
2022/04/27 01:35:58;;;;;;;12.05;8.93;;;;;;;1.06;99.22;102299.03;1039861;28;20430;-80
2022/04/27 01:36:29;;;;;;;10.68;9.43;;;;;;;1.01;98.74;102298.56;1040331;28;20335;-80
2022/04/27 01:38:00;;;;;;;14.70;9.15;;;;;;;0.92;98.36;102300.94;1036889;28;20301;-80
2022/04/27 01:38:39;;;;;;;10.90;7.88;;;;;;;1.05;98.66;102300.81;1039660;28;20384;-80
2022/04/27 01:39:11;;;;;;;10.20;8.55;;;;;;;1.12;98.67;102301.22;1031196;28;20042;-80
2022/04/27 01:39:43;;;;;;;15.02;9.20;;;;;;;1.15;98.38;102298.34;1026502;28;20302;-80
2022/04/27 01:40:15;;;;;;;12.02;9.20;;;;;;;1.28;98.58;102301.66;1029757;28;20349;-76
2022/04/27 01:40:47;;;;;;;15.52;10.32;;;;;;;1.35;98.24;102300.22;1026638;28;20310;-77
2022/04/27 01:41:19;;;;;;;9.60;8.02;;;;;;;1.38;97.98;102299.19;1028199;28;20302;-78
2022/04/27 01:41:51;;;;;;;15.38;9.18;;;;;;;1.39;97.93;102301.69;1035726;28;20386;-77
2022/04/27 01:42:22;;;;;;;10.35;9.02;;;;;;;1.20;97.86;102294.41;1036578;28;20807;-77
2022/04/27 01:42:54;;;;;;;15.60;9.27;;;;;;;1.27;97.92;102299.16;1037847;28;20300;-80
2022/04/27 01:43:26;;;;;;;13.55;8.85;;;;;;;1.30;97.66;102299.75;1043964;28;20299;-76
2022/04/27 01:43:57;;;;;;;9.57;8.68;;;;;;;1.34;97.45;102301.19;1042582;28;20395;-77
2022/04/27 01:44:29;;;;;;;11.00;9.13;;;;;;;1.36;97.61;102299.25;1037640;28;20703;-77
2022/04/27 01:45:02;;;;;;;12.23;8.18;;;;;;;1.30;97.33;102299.75;1039949;28;20303;-76
2022/04/27 01:45:34;;;;;;;13.02;8.90;;;;;;;1.28;97.16;102296.41;1040735;28;20295;-76
2022/04/27 01:46:06;;;;;;;10.88;8.80;;;;;;;1.09;97.14;102301.41;1040692;28;20289;-76
2022/04/27 01:46:37;;;;;;;10.32;9.02;;;;;;;1.00;97.30;102299.50;1040047;28;20364;-77
2022/04/27 01:47:09;;;;;;;11.38;9.10;;;;;;;1.12;97.43;102301.22;1040145;28;20300;-78
2022/04/27 01:47:41;;;;;;;13.70;8.82;;;;;;;1.13;97.30;102298.47;1040484;28;20296;-78
2022/04/27 01:48:14;;;;;;;9.75;8.27;;;;;;;0.88;96.99;102304.75;1040607;28;20450;-77
2022/04/27 01:48:46;;;;;;;15.27;9.05;;;;;;;0.90;97.13;102302.84;1044105;28;20303;-77
2022/04/27 01:49:18;;;;;;;12.75;9.10;;;;;;;0.98;97.61;102302.25;1044296;28;20306;-76
2022/04/27 01:49:50;;;;;;;17.23;9.93;;;;;;;1.00;97.55;102302.13;1044129;28;20298;-77
2022/04/27 01:50:21;;;;;;;14.50;10.48;;;;;;;0.84;97.65;102303.31;1036399;28;20671;-76
2022/04/27 01:50:53;;;;;;;10.43;9.48;;;;;;;0.90;97.67;102302.00;1033540;28;20301;-76
2022/04/27 01:54:16;;;;;;;8.90;8.05;;;;;;;0.79;97.41;102308.06;1040556;28;20296;-77
2022/04/27 01:54:50;;;;;;;12.20;8.52;;;;;;;1.03;97.86;102309.75;1039912;28;20406;-76
2022/04/27 01:55:21;;;;;;;10.00;8.95;;;;;;;1.06;98.00;102314.78;1044140;28;20813;-76
2022/04/27 01:55:54;;;;;;;11.75;10.13;;;;;;;1.03;97.40;102309.75;1039794;28;20851;-77
2022/04/27 01:56:26;;;;;;;15.93;9.95;;;;;;;1.05;97.18;102308.69;1035742;28;20324;-76
2022/04/27 01:56:58;;;;;;;16.08;9.50;;;;;;;1.13;97.40;102313.38;1032537;28;20308;-77
2022/04/27 01:57:30;;;;;;;12.70;9.32;;;;;;;1.02;97.50;102313.34;1032221;28;20304;-77
2022/04/27 01:58:02;;;;;;;10.45;9.40;;;;;;;0.93;97.19;102307.84;1031660;28;20392;-77
2022/04/27 01:58:35;;;;;;;8.85;8.02;;;;;;;0.99;97.36;102310.97;1028540;28;20445;-78
2022/04/27 01:59:08;;;;;;;10.65;9.60;;;;;;;0.93;97.23;102312.25;1028388;28;20675;-77
2022/04/27 01:59:41;;;;;;;10.32;9.02;;;;;;;0.74;97.32;102311.97;1032464;28;20316;-77
2022/04/27 02:00:13;;;;;;;11.48;9.82;;;;;;;0.50;97.51;102310.25;1035841;28;20305;-77
2022/04/27 02:00:48;;;;;;;13.07;10.48;;;;;;;0.55;98.08;102315.19;1036839;28;20304;-78
2022/04/27 02:01:21;;;;;;;10.43;9.15;;;;;;;0.45;98.06;102314.16;1038153;28;20311;-77
2022/04/27 02:01:54;;;;;;;9.93;8.93;;;;;;;0.33;98.47;102315.94;1035685;28;20423;-76
2022/04/27 02:02:26;;;;;;;17.75;8.45;;;;;;;0.28;99.13;102316.28;1031976;28;20821;-77
2022/04/27 02:03:01;;;;;;;10.35;9.35;;;;;;;0.41;99.07;102317.97;1032857;28;20429;-77
2022/04/27 02:03:32;;;;;;;10.32;8.70;;;;;;;0.42;99.50;102312.63;1034614;28;20305;-77
2022/04/27 02:04:04;;;;;;;7.75;7.05;;;;;;;0.50;99.38;102318.13;1036899;28;20813;-77
2022/04/27 02:04:36;;;;;;;9.73;8.75;;;;;;;0.30;99.70;102314.38;1036222;28;20299;-76
2022/04/27 02:05:09;;;;;;;11.88;8.75;;;;;;;0.52;99.90;102312.75;1031792;28;20305;-75
2022/04/27 02:05:41;;;;;;;17.25;9.68;;;;;;;0.52;100.00;102318.00;1032312;28;20298;-76
2022/04/27 02:06:19;;;;;;;14.93;8.90;;;;;;;0.23;100.00;102318.38;1031716;28;20379;-77
2022/04/27 02:06:51;;;;;;;11.23;9.90;;;;;;;0.46;100.00;102308.81;1025022;28;20315;-78
2022/04/27 02:07:23;;;;;;;12.80;9.82;;;;;;;0.52;100.00;102312.75;1029187;28;20310;-76
2022/04/27 02:07:55;;;;;;;11.93;10.52;;;;;;;0.21;100.00;102314.19;1032986;28;20309;-75
2022/04/27 02:08:26;;;;;;;11.77;10.65;;;;;;;0.17;100.00;102324.06;1033465;28;20309;-76
2022/04/27 02:08:58;;;;;;;11.43;10.18;;;;;;;0.05;100.00;102317.13;1040086;28;20828;-78
2022/04/27 02:09:37;;;;;;;9.25;8.40;;;;;;;0.08;100.00;102316.88;1041354;28;20303;-76
2022/04/27 02:10:09;;;;;;;10.20;9.20;;;;;;;0.16;100.00;102317.16;1039908;28;20307;-77
2022/04/27 02:10:45;;;;;;;11.30;9.75;;;;;;;0.15;100.00;102319.88;1035550;28;20451;-76
2022/04/27 02:11:20;;;;;;;11.15;9.75;;;;;;;0.27;100.00;102322.47;1033099;28;20671;-78
2022/04/27 02:12:03;;;;;;;12.57;10.23;;;;;;;0.09;100.00;102323.78;1031820;28;20453;-79
2022/04/27 02:12:37;;;;;;;13.65;9.55;;;;;;;0.00;100.00;102321.84;1029432;28;20409;-80
2022/04/27 02:13:19;;;;;;;12.27;9.27;;;;;;;-0.06;100.00;102317.03;1031293;28;20305;-80
2022/04/27 02:13:54;;;;;;;10.15;9.23;;;;;;;-0.01;100.00;102323.59;1029234;28;20368;-80
2022/04/27 02:14:28;;;;;;;9.63;8.77;;;;;;;0.19;100.00;102316.94;1029430;28;20844;-80
2022/04/27 02:14:59;;;;;;;10.25;9.23;;;;;;;0.38;100.00;102328.69;1027172;28;20303;-80
2022/04/27 02:15:32;;;;;;;11.02;9.30;;;;;;;0.49;100.00;102324.31;1031212;28;20353;-80
2022/04/27 02:16:28;;;;;;;9.90;8.98;;;;;;;0.23;100.00;102318.38;1030996;28;20667;-80
2022/04/27 02:17:00;;;;;;;11.27;10.00;;;;;;;0.14;100.00;102324.28;1034797;28;20312;-80
2022/04/27 02:17:31;;;;;;;16.67;11.82;;;;;;;0.01;100.00;102326.16;1035258;28;20738;-80
2022/04/27 02:18:03;;;;;;;11.63;10.52;;;;;;;0.04;100.00;102323.31;1031051;28;20348;-80
2022/04/27 02:18:36;;;;;;;12.00;10.77;;;;;;;0.08;100.00;102324.75;1028050;28;20313;-80
2022/04/27 02:19:09;;;;;;;14.30;11.55;;;;;;;0.19;100.00;102323.94;1032602;28;20690;-79
2022/04/27 02:19:42;;;;;;;13.05;10.95;;;;;;;0.30;100.00;102324.03;1028253;28;20317;-79
2022/04/27 02:20:13;;;;;;;12.38;10.98;;;;;;;0.34;100.00;102324.63;1031974;28;20297;-80
2022/04/27 02:20:46;;;;;;;12.65;11.50;;;;;;;0.42;100.00;102325.72;1032023;28;20337;-79
2022/04/27 02:21:20;;;;;;;13.02;11.05;;;;;;;0.47;100.00;102325.38;1031382;28;20711;-80
2022/04/27 02:21:52;;;;;;;13.25;11.40;;;;;;;0.44;100.00;102325.59;1032087;28;20309;-80
2022/04/27 02:22:24;;;;;;;12.82;11.02;;;;;;;0.37;100.00;102330.47;1035424;28;20308;-81
2022/04/27 02:22:55;;;;;;;13.77;11.25;;;;;;;0.30;100.00;102329.25;1036231;28;20292;-79
2022/04/27 02:23:27;;;;;;;20.02;12.10;;;;;;;0.26;100.00;102319.94;1032553;28;20340;-80
2022/04/27 02:23:59;;;;;;;17.10;11.00;;;;;;;0.21;100.00;102330.75;1035189;28;20331;-79
2022/04/27 02:24:31;;;;;;;12.30;11.23;;;;;;;0.13;100.00;102327.84;1035607;28;20304;-80
2022/04/27 02:25:04;;;;;;;14.88;11.38;;;;;;;0.12;100.00;102334.06;1037421;28;20782;-78
2022/04/27 02:25:35;;;;;;;17.13;10.85;;;;;;;0.13;100.00;102327.84;1035639;28;21368;-77
2022/04/27 02:26:07;;;;;;;12.35;11.15;;;;;;;0.19;100.00;102322.16;1036450;28;20670;-77
2022/04/27 02:26:39;;;;;;;14.00;11.70;;;;;;;0.39;100.00;102327.75;1036272;28;20336;-77
2022/04/27 02:27:10;;;;;;;17.35;12.10;;;;;;;0.44;100.00;102325.59;1036462;28;20345;-78
2022/04/27 02:27:43;;;;;;;12.50;11.25;;;;;;;0.41;100.00;102336.31;1035878;28;20308;-77
2022/04/27 02:28:15;;;;;;;18.08;12.45;;;;;;;0.33;100.00;102333.44;1028327;28;20302;-78
2022/04/27 02:28:47;;;;;;;18.55;11.98;;;;;;;0.21;100.00;102336.00;1032251;28;20301;-77
2022/04/27 02:29:20;;;;;;;18.52;12.48;;;;;;;0.16;100.00;102332.03;1033062;28;20309;-76
2022/04/27 02:29:51;;;;;;;13.38;12.18;;;;;;;0.23;100.00;102328.84;1032713;28;20301;-77
2022/04/27 02:30:28;;;;;;;14.35;11.20;;;;;;;0.16;100.00;102342.53;1036952;28;20307;-77
2022/04/27 02:31:00;;;;;;;13.05;10.98;;;;;;;0.15;100.00;102336.44;1039928;28;20307;-77
2022/04/27 02:31:32;;;;;;;12.35;11.05;;;;;;;0.31;100.00;102333.56;1037022;28;20301;-77
2022/04/27 02:32:04;;;;;;;11.50;10.50;;;;;;;0.32;100.00;102334.38;1036074;28;20312;-76
2022/04/27 02:32:36;;;;;;;13.07;11.60;;;;;;;0.29;100.00;102333.66;1039776;28;20318;-76
2022/04/27 02:33:08;;;;;;;12.40;11.20;;;;;;;0.20;100.00;102329.06;1040604;28;20370;-77
2022/04/27 02:33:40;;;;;;;13.27;11.95;;;;;;;0.13;100.00;102333.09;1036787;28;20312;-77
2022/04/27 02:34:12;;;;;;;14.02;12.48;;;;;;;0.02;100.00;102332.22;1036046;28;20316;-80
2022/04/27 02:34:45;;;;;;;12.63;11.40;;;;;;;-0.09;100.00;102333.81;1031391;28;20452;-79
2022/04/27 02:35:16;;;;;;;14.00;11.77;;;;;;;-0.14;100.00;102335.09;1031309;28;20360;-80
2022/04/27 02:35:49;;;;;;;13.10;11.27;;;;;;;-0.16;100.00;102327.34;1027527;28;20306;-80